sensor_id;sensor_type;location;lat;lon;timestamp;P1;durP1;ratioP1;P2;durP2;ratioP2
16015;SDS011;8112;53.592;10.184;2022-12-18T00:03:31;28.13;;;16.97;;
16015;SDS011;8112;53.592;10.184;2022-12-18T00:08:34;21.77;;;14.90;;
16015;SDS011;8112;53.592;10.184;2022-12-18T00:13:37;23.23;;;14.50;;
16015;SDS011;8112;53.592;10.184;2022-12-18T00:18:39;21.03;;;15.10;;
16015;SDS011;8112;53.592;10.184;2022-12-18T00:23:41;23.37;;;14.47;;
16015;SDS011;8112;53.592;10.184;2022-12-18T00:28:46;18.63;;;13.17;;
16015;SDS011;8112;53.592;10.184;2022-12-18T00:33:48;19.60;;;13.23;;
16015;SDS011;8112;53.592;10.184;2022-12-18T00:38:49;19.00;;;12.40;;
16015;SDS011;8112;53.592;10.184;2022-12-18T00:43:53;16.37;;;12.33;;
16015;SDS011;8112;53.592;10.184;2022-12-18T00:48:54;19.20;;;12.70;;
16015;SDS011;8112;53.592;10.184;2022-12-18T00:53:56;17.07;;;11.90;;
16015;SDS011;8112;53.592;10.184;2022-12-18T00:58:59;20.87;;;13.93;;
16015;SDS011;8112;53.592;10.184;2022-12-18T01:04:01;22.83;;;14.27;;
16015;SDS011;8112;53.592;10.184;2022-12-18T01:09:04;19.37;;;12.90;;
16015;SDS011;8112;53.592;10.184;2022-12-18T01:14:07;16.97;;;12.53;;
16015;SDS011;8112;53.592;10.184;2022-12-18T01:19:11;16.57;;;11.97;;
16015;SDS011;8112;53.592;10.184;2022-12-18T01:24:13;18.07;;;12.37;;
16015;SDS011;8112;53.592;10.184;2022-12-18T01:29:16;17.37;;;12.27;;
16015;SDS011;8112;53.592;10.184;2022-12-18T01:34:18;17.10;;;11.70;;
16015;SDS011;8112;53.592;10.184;2022-12-18T01:39:20;17.37;;;12.43;;
16015;SDS011;8112;53.592;10.184;2022-12-18T01:50:02;16.87;;;11.73;;
16015;SDS011;8112;53.592;10.184;2022-12-18T01:55:07;16.00;;;11.67;;
16015;SDS011;8112;53.592;10.184;2022-12-18T02:00:14;19.90;;;11.60;;
16015;SDS011;8112;53.592;10.184;2022-12-18T02:05:19;16.10;;;10.93;;
16015;SDS011;8112;53.592;10.184;2022-12-18T02:10:33;16.80;;;11.70;;
16015;SDS011;8112;53.592;10.184;2022-12-18T02:15:46;17.43;;;10.93;;
16015;SDS011;8112;53.592;10.184;2022-12-18T02:20:58;18.07;;;10.93;;
16015;SDS011;8112;53.592;10.184;2022-12-18T02:26:13;18.73;;;12.07;;
16015;SDS011;8112;53.592;10.184;2022-12-18T02:31:25;17.07;;;10.57;;
16015;SDS011;8112;53.592;10.184;2022-12-18T02:36:29;15.93;;;11.10;;
16015;SDS011;8112;53.592;10.184;2022-12-18T02:41:35;17.47;;;10.70;;
16015;SDS011;8112;53.592;10.184;2022-12-18T02:46:39;14.73;;;10.37;;
16015;SDS011;8112;53.592;10.184;2022-12-18T02:51:50;18.43;;;11.00;;
16015;SDS011;8112;53.592;10.184;2022-12-18T02:56:56;17.60;;;11.27;;
16015;SDS011;8112;53.592;10.184;2022-12-18T03:02:04;15.20;;;10.77;;
16015;SDS011;8112;53.592;10.184;2022-12-18T03:07:19;17.67;;;10.57;;
16015;SDS011;8112;53.592;10.184;2022-12-18T03:12:30;15.17;;;10.47;;
16015;SDS011;8112;53.592;10.184;2022-12-18T03:17:34;16.63;;;10.63;;
16015;SDS011;8112;53.592;10.184;2022-12-18T03:22:36;14.47;;;10.53;;
16015;SDS011;8112;53.592;10.184;2022-12-18T03:27:42;15.87;;;10.47;;
16015;SDS011;8112;53.592;10.184;2022-12-18T03:32:51;14.80;;;10.67;;
16015;SDS011;8112;53.592;10.184;2022-12-18T03:37:58;13.97;;;9.87;;
16015;SDS011;8112;53.592;10.184;2022-12-18T03:43:03;13.40;;;10.17;;
16015;SDS011;8112;53.592;10.184;2022-12-18T03:48:14;19.07;;;10.23;;
16015;SDS011;8112;53.592;10.184;2022-12-18T03:53:23;15.43;;;10.10;;
16015;SDS011;8112;53.592;10.184;2022-12-18T03:58:35;13.83;;;10.00;;
16015;SDS011;8112;53.592;10.184;2022-12-18T04:03:49;17.93;;;10.37;;
16015;SDS011;8112;53.592;10.184;2022-12-18T04:08:53;16.20;;;10.13;;
16015;SDS011;8112;53.592;10.184;2022-12-18T04:14:00;15.43;;;10.47;;
16015;SDS011;8112;53.592;10.184;2022-12-18T04:19:02;16.40;;;10.27;;
16015;SDS011;8112;53.592;10.184;2022-12-18T04:24:11;15.57;;;10.50;;
16015;SDS011;8112;53.592;10.184;2022-12-18T04:29:20;14.73;;;10.37;;
16015;SDS011;8112;53.592;10.184;2022-12-18T04:34:22;14.20;;;10.80;;
16015;SDS011;8112;53.592;10.184;2022-12-18T04:39:26;15.63;;;10.77;;
16015;SDS011;8112;53.592;10.184;2022-12-18T04:44:33;17.80;;;11.37;;
16015;SDS011;8112;53.592;10.184;2022-12-18T04:49:35;18.53;;;11.27;;
16015;SDS011;8112;53.592;10.184;2022-12-18T04:54:37;20.17;;;13.57;;
16015;SDS011;8112;53.592;10.184;2022-12-18T04:59:40;21.60;;;13.40;;
16015;SDS011;8112;53.592;10.184;2022-12-18T05:04:41;18.20;;;11.67;;
16015;SDS011;8112;53.592;10.184;2022-12-18T05:09:43;18.03;;;10.83;;
16015;SDS011;8112;53.592;10.184;2022-12-18T05:14:46;14.00;;;10.60;;
16015;SDS011;8112;53.592;10.184;2022-12-18T05:19:48;17.27;;;11.60;;
16015;SDS011;8112;53.592;10.184;2022-12-18T05:24:49;18.07;;;12.53;;
16015;SDS011;8112;53.592;10.184;2022-12-18T05:29:52;21.43;;;11.40;;
16015;SDS011;8112;53.592;10.184;2022-12-18T05:34:54;17.80;;;11.47;;
16015;SDS011;8112;53.592;10.184;2022-12-18T05:39:57;16.10;;;12.03;;
16015;SDS011;8112;53.592;10.184;2022-12-18T05:45:00;17.60;;;11.33;;
16015;SDS011;8112;53.592;10.184;2022-12-18T05:50:02;15.97;;;10.93;;
16015;SDS011;8112;53.592;10.184;2022-12-18T05:55:04;16.40;;;11.17;;
16015;SDS011;8112;53.592;10.184;2022-12-18T06:00:08;17.33;;;11.33;;
16015;SDS011;8112;53.592;10.184;2022-12-18T06:05:12;16.83;;;10.67;;
16015;SDS011;8112;53.592;10.184;2022-12-18T06:10:14;17.97;;;12.07;;
16015;SDS011;8112;53.592;10.184;2022-12-18T06:15:17;14.93;;;10.60;;
16015;SDS011;8112;53.592;10.184;2022-12-18T06:20:19;16.67;;;11.77;;
16015;SDS011;8112;53.592;10.184;2022-12-18T06:25:20;19.13;;;11.77;;
16015;SDS011;8112;53.592;10.184;2022-12-18T06:30:23;14.73;;;11.23;;
16015;SDS011;8112;53.592;10.184;2022-12-18T06:35:25;17.90;;;11.93;;
16015;SDS011;8112;53.592;10.184;2022-12-18T06:40:27;17.63;;;12.60;;
16015;SDS011;8112;53.592;10.184;2022-12-18T06:45:30;17.53;;;12.20;;
16015;SDS011;8112;53.592;10.184;2022-12-18T06:50:31;18.67;;;13.20;;
16015;SDS011;8112;53.592;10.184;2022-12-18T06:55:33;17.37;;;12.67;;
16015;SDS011;8112;53.592;10.184;2022-12-18T07:00:36;15.83;;;11.70;;
16015;SDS011;8112;53.592;10.184;2022-12-18T07:05:39;19.20;;;12.87;;
16015;SDS011;8112;53.592;10.184;2022-12-18T07:10:41;22.33;;;12.07;;
16015;SDS011;8112;53.592;10.184;2022-12-18T07:15:44;19.00;;;12.70;;
16015;SDS011;8112;53.592;10.184;2022-12-18T07:20:46;21.63;;;14.97;;
16015;SDS011;8112;53.592;10.184;2022-12-18T07:25:48;24.70;;;14.73;;
16015;SDS011;8112;53.592;10.184;2022-12-18T07:30:51;23.67;;;14.37;;
16015;SDS011;8112;53.592;10.184;2022-12-18T07:35:52;24.10;;;14.73;;
16015;SDS011;8112;53.592;10.184;2022-12-18T07:40:54;25.00;;;14.57;;
16015;SDS011;8112;53.592;10.184;2022-12-18T07:45:57;20.50;;;14.00;;
16015;SDS011;8112;53.592;10.184;2022-12-18T07:50:59;18.83;;;13.20;;
16015;SDS011;8112;53.592;10.184;2022-12-18T07:56:02;19.87;;;13.30;;
16015;SDS011;8112;53.592;10.184;2022-12-18T08:01:07;21.87;;;13.33;;
16015;SDS011;8112;53.592;10.184;2022-12-18T08:06:10;18.10;;;13.07;;
16015;SDS011;8112;53.592;10.184;2022-12-18T08:11:11;19.10;;;12.90;;
16015;SDS011;8112;53.592;10.184;2022-12-18T08:16:14;19.63;;;12.77;;
16015;SDS011;8112;53.592;10.184;2022-12-18T08:21:17;19.53;;;12.97;;
16015;SDS011;8112;53.592;10.184;2022-12-18T08:26:23;17.07;;;12.27;;
16015;SDS011;8112;53.592;10.184;2022-12-18T08:31:29;18.93;;;12.87;;
16015;SDS011;8112;53.592;10.184;2022-12-18T08:36:31;18.97;;;12.80;;
16015;SDS011;8112;53.592;10.184;2022-12-18T08:41:32;18.97;;;12.90;;
16015;SDS011;8112;53.592;10.184;2022-12-18T08:46:36;19.43;;;12.33;;
16015;SDS011;8112;53.592;10.184;2022-12-18T08:51:39;21.43;;;13.43;;
16015;SDS011;8112;53.592;10.184;2022-12-18T08:56:41;24.50;;;13.30;;
16015;SDS011;8112;53.592;10.184;2022-12-18T09:01:44;25.83;;;14.87;;
16015;SDS011;8112;53.592;10.184;2022-12-18T09:06:47;24.13;;;14.83;;
16015;SDS011;8112;53.592;10.184;2022-12-18T09:11:48;21.70;;;13.60;;
16015;SDS011;8112;53.592;10.184;2022-12-18T09:16:51;17.67;;;12.77;;
16015;SDS011;8112;53.592;10.184;2022-12-18T09:21:53;19.53;;;12.77;;
16015;SDS011;8112;53.592;10.184;2022-12-18T09:26:55;19.03;;;13.07;;
16015;SDS011;8112;53.592;10.184;2022-12-18T09:31:58;18.93;;;12.50;;
16015;SDS011;8112;53.592;10.184;2022-12-18T09:36:59;20.63;;;12.07;;
16015;SDS011;8112;53.592;10.184;2022-12-18T09:42:01;22.43;;;13.97;;
16015;SDS011;8112;53.592;10.184;2022-12-18T09:47:10;18.23;;;12.17;;
16015;SDS011;8112;53.592;10.184;2022-12-18T09:52:17;20.37;;;13.17;;
16015;SDS011;8112;53.592;10.184;2022-12-18T09:57:24;20.53;;;13.47;;
16015;SDS011;8112;53.592;10.184;2022-12-18T10:02:30;15.73;;;11.33;;
16015;SDS011;8112;53.592;10.184;2022-12-18T10:07:35;20.87;;;11.90;;
16015;SDS011;8112;53.592;10.184;2022-12-18T10:12:46;20.03;;;11.77;;
16015;SDS011;8112;53.592;10.184;2022-12-18T10:17:55;18.67;;;11.33;;
16015;SDS011;8112;53.592;10.184;2022-12-18T10:23:07;14.73;;;10.60;;
16015;SDS011;8112;53.592;10.184;2022-12-18T10:28:17;18.07;;;13.07;;
16015;SDS011;8112;53.592;10.184;2022-12-18T10:33:23;19.57;;;12.27;;
16015;SDS011;8112;53.592;10.184;2022-12-18T10:38:26;16.20;;;11.13;;
16015;SDS011;8112;53.592;10.184;2022-12-18T10:43:30;20.37;;;12.47;;
16015;SDS011;8112;53.592;10.184;2022-12-18T10:48:35;18.33;;;12.37;;
16015;SDS011;8112;53.592;10.184;2022-12-18T10:53:41;18.80;;;12.23;;
16015;SDS011;8112;53.592;10.184;2022-12-18T10:58:43;18.27;;;12.87;;
16015;SDS011;8112;53.592;10.184;2022-12-18T11:04:04;18.17;;;12.83;;
16015;SDS011;8112;53.592;10.184;2022-12-18T11:09:18;18.03;;;12.17;;
16015;SDS011;8112;53.592;10.184;2022-12-18T11:14:21;16.60;;;12.10;;
16015;SDS011;8112;53.592;10.184;2022-12-18T11:19:31;19.67;;;11.87;;
16015;SDS011;8112;53.592;10.184;2022-12-18T11:24:35;18.43;;;12.33;;
16015;SDS011;8112;53.592;10.184;2022-12-18T11:29:38;17.97;;;11.83;;
16015;SDS011;8112;53.592;10.184;2022-12-18T11:34:42;15.13;;;11.17;;
16015;SDS011;8112;53.592;10.184;2022-12-18T11:39:49;14.83;;;10.63;;
16015;SDS011;8112;53.592;10.184;2022-12-18T11:44:57;19.13;;;11.90;;
16015;SDS011;8112;53.592;10.184;2022-12-18T11:50:03;19.20;;;12.23;;
16015;SDS011;8112;53.592;10.184;2022-12-18T11:55:14;19.13;;;11.37;;
16015;SDS011;8112;53.592;10.184;2022-12-18T12:00:21;15.90;;;11.17;;
16015;SDS011;8112;53.592;10.184;2022-12-18T12:05:35;17.40;;;12.13;;
16015;SDS011;8112;53.592;10.184;2022-12-18T12:10:47;16.70;;;11.27;;
16015;SDS011;8112;53.592;10.184;2022-12-18T12:16:01;19.17;;;12.33;;
16015;SDS011;8112;53.592;10.184;2022-12-18T12:21:14;18.20;;;12.70;;
16015;SDS011;8112;53.592;10.184;2022-12-18T12:26:23;18.60;;;10.40;;
16015;SDS011;8112;53.592;10.184;2022-12-18T12:31:41;21.87;;;11.93;;
16015;SDS011;8112;53.592;10.184;2022-12-18T12:37:04;18.73;;;11.70;;
16015;SDS011;8112;53.592;10.184;2022-12-18T12:42:18;19.03;;;11.43;;
16015;SDS011;8112;53.592;10.184;2022-12-18T12:47:40;22.60;;;12.50;;
16015;SDS011;8112;53.592;10.184;2022-12-18T12:52:47;19.77;;;12.23;;
16015;SDS011;8112;53.592;10.184;2022-12-18T12:57:55;15.93;;;11.10;;
16015;SDS011;8112;53.592;10.184;2022-12-18T13:03:03;19.07;;;12.37;;
16015;SDS011;8112;53.592;10.184;2022-12-18T13:08:23;18.30;;;11.83;;
16015;SDS011;8112;53.592;10.184;2022-12-18T13:13:27;19.87;;;11.67;;
16015;SDS011;8112;53.592;10.184;2022-12-18T13:18:52;19.43;;;12.03;;
16015;SDS011;8112;53.592;10.184;2022-12-18T13:24:08;22.80;;;12.90;;
16015;SDS011;8112;53.592;10.184;2022-12-18T13:29:40;18.37;;;11.87;;
16015;SDS011;8112;53.592;10.184;2022-12-18T13:34:42;22.03;;;14.37;;
16015;SDS011;8112;53.592;10.184;2022-12-18T13:39:47;22.07;;;13.40;;
16015;SDS011;8112;53.592;10.184;2022-12-18T13:44:48;20.97;;;13.27;;
16015;SDS011;8112;53.592;10.184;2022-12-18T13:49:50;22.00;;;13.70;;
16015;SDS011;8112;53.592;10.184;2022-12-18T13:54:54;21.13;;;12.67;;
16015;SDS011;8112;53.592;10.184;2022-12-18T13:59:58;22.10;;;13.17;;
16015;SDS011;8112;53.592;10.184;2022-12-18T14:05:21;20.00;;;12.50;;
16015;SDS011;8112;53.592;10.184;2022-12-18T14:10:25;22.17;;;12.90;;
16015;SDS011;8112;53.592;10.184;2022-12-18T14:15:27;22.60;;;12.67;;
16015;SDS011;8112;53.592;10.184;2022-12-18T14:20:33;21.40;;;12.87;;
16015;SDS011;8112;53.592;10.184;2022-12-18T14:25:37;22.00;;;13.07;;
16015;SDS011;8112;53.592;10.184;2022-12-18T14:30:39;24.83;;;13.60;;
16015;SDS011;8112;53.592;10.184;2022-12-18T14:35:43;27.37;;;16.73;;
16015;SDS011;8112;53.592;10.184;2022-12-18T14:41:05;27.50;;;15.37;;
16015;SDS011;8112;53.592;10.184;2022-12-18T14:46:25;28.03;;;16.03;;
16015;SDS011;8112;53.592;10.184;2022-12-18T14:51:30;29.10;;;15.43;;
16015;SDS011;8112;53.592;10.184;2022-12-18T14:56:36;25.40;;;16.57;;
16015;SDS011;8112;53.592;10.184;2022-12-18T15:01:45;34.33;;;17.10;;
16015;SDS011;8112;53.592;10.184;2022-12-18T15:06:48;30.33;;;15.67;;
16015;SDS011;8112;53.592;10.184;2022-12-18T15:12:04;30.83;;;17.87;;
16015;SDS011;8112;53.592;10.184;2022-12-18T15:17:14;31.63;;;16.90;;
16015;SDS011;8112;53.592;10.184;2022-12-18T15:22:20;33.13;;;17.40;;
16015;SDS011;8112;53.592;10.184;2022-12-18T15:27:28;36.27;;;17.87;;
16015;SDS011;8112;53.592;10.184;2022-12-18T15:32:32;32.37;;;17.80;;
16015;SDS011;8112;53.592;10.184;2022-12-18T15:37:33;30.13;;;16.47;;
16015;SDS011;8112;53.592;10.184;2022-12-18T15:42:36;34.20;;;18.43;;
16015;SDS011;8112;53.592;10.184;2022-12-18T15:47:52;34.53;;;18.40;;
16015;SDS011;8112;53.592;10.184;2022-12-18T15:52:54;33.30;;;18.70;;
16015;SDS011;8112;53.592;10.184;2022-12-18T15:57:57;36.83;;;19.87;;
16015;SDS011;8112;53.592;10.184;2022-12-18T16:02:59;38.60;;;18.77;;
16015;SDS011;8112;53.592;10.184;2022-12-18T16:08:00;33.40;;;19.27;;
16015;SDS011;8112;53.592;10.184;2022-12-18T16:13:03;36.23;;;18.67;;
16015;SDS011;8112;53.592;10.184;2022-12-18T16:18:05;38.07;;;18.47;;
16015;SDS011;8112;53.592;10.184;2022-12-18T16:23:07;39.43;;;19.20;;
16015;SDS011;8112;53.592;10.184;2022-12-18T16:28:10;33.47;;;18.53;;
16015;SDS011;8112;53.592;10.184;2022-12-18T16:33:11;35.83;;;18.50;;
16015;SDS011;8112;53.592;10.184;2022-12-18T16:38:13;31.97;;;18.50;;
16015;SDS011;8112;53.592;10.184;2022-12-18T16:43:16;32.13;;;18.00;;
16015;SDS011;8112;53.592;10.184;2022-12-18T16:48:18;35.53;;;18.57;;
16015;SDS011;8112;53.592;10.184;2022-12-18T16:53:19;34.20;;;18.60;;
16015;SDS011;8112;53.592;10.184;2022-12-18T16:58:22;33.80;;;18.43;;
16015;SDS011;8112;53.592;10.184;2022-12-18T17:03:24;37.60;;;19.43;;
16015;SDS011;8112;53.592;10.184;2022-12-18T17:08:26;32.53;;;17.17;;
16015;SDS011;8112;53.592;10.184;2022-12-18T17:13:29;30.47;;;16.90;;
16015;SDS011;8112;53.592;10.184;2022-12-18T17:18:31;30.13;;;17.43;;
16015;SDS011;8112;53.592;10.184;2022-12-18T17:23:34;27.70;;;16.43;;
16015;SDS011;8112;53.592;10.184;2022-12-18T17:28:38;28.73;;;16.73;;
16015;SDS011;8112;53.592;10.184;2022-12-18T17:33:41;29.83;;;17.10;;
16015;SDS011;8112;53.592;10.184;2022-12-18T17:38:48;29.23;;;16.33;;
16015;SDS011;8112;53.592;10.184;2022-12-18T17:43:55;27.90;;;16.60;;
16015;SDS011;8112;53.592;10.184;2022-12-18T17:48:58;29.10;;;16.83;;
16015;SDS011;8112;53.592;10.184;2022-12-18T17:54:00;29.13;;;16.30;;
16015;SDS011;8112;53.592;10.184;2022-12-18T17:59:03;27.47;;;16.87;;
16015;SDS011;8112;53.592;10.184;2022-12-18T18:04:05;27.20;;;15.70;;
16015;SDS011;8112;53.592;10.184;2022-12-18T18:09:07;24.43;;;15.27;;
16015;SDS011;8112;53.592;10.184;2022-12-18T18:14:12;26.70;;;15.97;;
16015;SDS011;8112;53.592;10.184;2022-12-18T18:19:16;32.00;;;15.93;;
16015;SDS011;8112;53.592;10.184;2022-12-18T18:24:20;26.63;;;14.93;;
16015;SDS011;8112;53.592;10.184;2022-12-18T18:29:26;25.90;;;14.47;;
16015;SDS011;8112;53.592;10.184;2022-12-18T18:34:30;26.17;;;14.50;;
16015;SDS011;8112;53.592;10.184;2022-12-18T18:39:33;25.37;;;16.30;;
16015;SDS011;8112;53.592;10.184;2022-12-18T18:44:36;27.03;;;15.10;;
16015;SDS011;8112;53.592;10.184;2022-12-18T18:49:38;24.43;;;14.43;;
16015;SDS011;8112;53.592;10.184;2022-12-18T18:54:40;21.13;;;14.43;;
16015;SDS011;8112;53.592;10.184;2022-12-18T18:59:43;23.53;;;14.90;;
16015;SDS011;8112;53.592;10.184;2022-12-18T19:04:44;21.57;;;13.20;;
16015;SDS011;8112;53.592;10.184;2022-12-18T19:09:46;20.40;;;12.97;;
16015;SDS011;8112;53.592;10.184;2022-12-18T19:14:53;21.80;;;12.80;;
16015;SDS011;8112;53.592;10.184;2022-12-18T19:19:55;22.33;;;13.43;;
16015;SDS011;8112;53.592;10.184;2022-12-18T19:24:57;23.13;;;13.47;;
16015;SDS011;8112;53.592;10.184;2022-12-18T19:30:00;23.87;;;14.33;;
16015;SDS011;8112;53.592;10.184;2022-12-18T19:35:02;20.90;;;13.30;;
16015;SDS011;8112;53.592;10.184;2022-12-18T19:40:04;20.90;;;13.67;;
16015;SDS011;8112;53.592;10.184;2022-12-18T19:45:10;24.83;;;14.73;;
16015;SDS011;8112;53.592;10.184;2022-12-18T19:50:12;26.17;;;13.87;;
16015;SDS011;8112;53.592;10.184;2022-12-18T19:55:14;25.67;;;13.83;;
16015;SDS011;8112;53.592;10.184;2022-12-18T20:00:19;24.13;;;13.60;;
16015;SDS011;8112;53.592;10.184;2022-12-18T20:05:21;20.27;;;13.40;;
16015;SDS011;8112;53.592;10.184;2022-12-18T20:10:24;26.30;;;14.00;;
16015;SDS011;8112;53.592;10.184;2022-12-18T20:15:27;23.33;;;13.53;;
16015;SDS011;8112;53.592;10.184;2022-12-18T20:20:29;26.00;;;14.67;;
16015;SDS011;8112;53.592;10.184;2022-12-18T20:25:30;24.97;;;13.90;;
16015;SDS011;8112;53.592;10.184;2022-12-18T20:30:34;23.97;;;14.07;;
16015;SDS011;8112;53.592;10.184;2022-12-18T20:35:35;25.10;;;15.43;;
16015;SDS011;8112;53.592;10.184;2022-12-18T20:40:39;22.10;;;14.27;;
16015;SDS011;8112;53.592;10.184;2022-12-18T20:45:42;24.47;;;14.43;;
16015;SDS011;8112;53.592;10.184;2022-12-18T20:50:44;24.63;;;14.73;;
16015;SDS011;8112;53.592;10.184;2022-12-18T20:55:45;25.13;;;13.87;;
16015;SDS011;8112;53.592;10.184;2022-12-18T21:00:48;25.57;;;15.40;;
16015;SDS011;8112;53.592;10.184;2022-12-18T21:05:50;25.27;;;15.23;;
16015;SDS011;8112;53.592;10.184;2022-12-18T21:10:52;23.67;;;13.80;;
16015;SDS011;8112;53.592;10.184;2022-12-18T21:15:56;21.83;;;14.77;;
16015;SDS011;8112;53.592;10.184;2022-12-18T21:20:58;25.10;;;15.10;;
16015;SDS011;8112;53.592;10.184;2022-12-18T21:26:13;21.47;;;14.13;;
16015;SDS011;8112;53.592;10.184;2022-12-18T21:31:17;23.97;;;14.37;;
16015;SDS011;8112;53.592;10.184;2022-12-18T21:36:19;22.50;;;13.00;;
16015;SDS011;8112;53.592;10.184;2022-12-18T21:41:21;24.70;;;14.70;;
16015;SDS011;8112;53.592;10.184;2022-12-18T21:46:42;20.93;;;13.13;;
16015;SDS011;8112;53.592;10.184;2022-12-18T21:51:46;22.50;;;13.73;;
16015;SDS011;8112;53.592;10.184;2022-12-18T21:56:49;23.23;;;13.30;;
16015;SDS011;8112;53.592;10.184;2022-12-18T22:01:53;22.17;;;14.10;;
16015;SDS011;8112;53.592;10.184;2022-12-18T22:06:59;24.27;;;13.57;;
16015;SDS011;8112;53.592;10.184;2022-12-18T22:12:01;25.40;;;14.80;;
16015;SDS011;8112;53.592;10.184;2022-12-18T22:17:05;24.27;;;15.53;;
16015;SDS011;8112;53.592;10.184;2022-12-18T22:22:07;24.73;;;14.97;;
16015;SDS011;8112;53.592;10.184;2022-12-18T22:27:08;25.97;;;14.53;;
16015;SDS011;8112;53.592;10.184;2022-12-18T22:32:12;24.37;;;14.33;;
16015;SDS011;8112;53.592;10.184;2022-12-18T22:37:16;25.77;;;14.50;;
16015;SDS011;8112;53.592;10.184;2022-12-18T22:42:17;23.20;;;14.33;;
16015;SDS011;8112;53.592;10.184;2022-12-18T22:47:20;24.90;;;14.17;;
16015;SDS011;8112;53.592;10.184;2022-12-18T22:52:22;23.17;;;13.50;;
16015;SDS011;8112;53.592;10.184;2022-12-18T22:57:24;24.77;;;14.70;;
16015;SDS011;8112;53.592;10.184;2022-12-18T23:02:27;25.90;;;14.80;;
16015;SDS011;8112;53.592;10.184;2022-12-18T23:07:29;29.03;;;15.57;;
16015;SDS011;8112;53.592;10.184;2022-12-18T23:12:31;25.00;;;14.27;;
16015;SDS011;8112;53.592;10.184;2022-12-18T23:17:34;25.60;;;14.77;;
16015;SDS011;8112;53.592;10.184;2022-12-18T23:22:35;25.83;;;15.60;;
16015;SDS011;8112;53.592;10.184;2022-12-18T23:27:37;21.73;;;14.33;;
16015;SDS011;8112;53.592;10.184;2022-12-18T23:32:40;25.53;;;15.60;;
16015;SDS011;8112;53.592;10.184;2022-12-18T23:37:42;25.30;;;15.67;;
16015;SDS011;8112;53.592;10.184;2022-12-18T23:42:44;27.63;;;15.80;;
16015;SDS011;8112;53.592;10.184;2022-12-18T23:47:47;26.30;;;14.90;;
16015;SDS011;8112;53.592;10.184;2022-12-18T23:52:48;24.13;;;14.47;;
16015;SDS011;8112;53.592;10.184;2022-12-18T23:57:50;24.00;;;14.50;;
